Impacts METAR Board
IDs:

KPDX - Portland Intl Arpt, OR, US

Updated at: 2300 UTC 01 Mar 2021
Potential Impact None Slight Moderate High
Time 01/11Z 01/12Z 01/13Z 01/14Z 01/15Z 01/16Z 01/17Z 01/18Z 01/19Z 01/20Z 01/21Z 01/22Z 01/23Z
Temp43 42 40 40 40 41 45 48 50 53 57 59 59
Dewpt37 37 36 36 36 37 39 38 38 38 38 39 40
Altim30.09 30.09 30.07 30.07 30.07 30.08 30.09 30.10 30.10 30.09 30.09 30.08 30.07
VIS10 10 10 10 10 10 10 10 10 10 10 10 10
CIG220 220 -- 220 210 250 250 250 250 250 250 180 200
CoverBKNBKNSCTBKNBKNBKNBKNBKNBKNBKNBKNBKNBKN
FltCatVFRVFRVFRVFRVFRVFRVFRVFRVFRVFRVFRVFRVFR
WX--------------------------
WDir1200000005010036000360
WSpd4 0 0 0 0 0 0 4 4 3 0 0 4
WGst-- -- -- -- -- -- -- -- -- -- -- -- --
Raw hourly METARs
KPDX 011053Z 12004KT 10SM BKN220 06/03 A3009 RMK AO2 SLP190 T00610028
KPDX 011153Z 00000KT 10SM BKN220 06/03 A3009 RMK AO2 SLP188 T00560028 10072 20050 56016
KPDX 011253Z 00000KT 10SM SCT220 04/02 A3007 RMK AO2 SLP183 T00440022
KPDX 011353Z 00000KT 10SM BKN220 04/02 A3007 RMK AO2 SLP182 T00440022
KPDX 011453Z 00000KT 10SM BKN210 04/02 A3007 RMK AO2 SLP180 T00440022 56008
KPDX 011553Z 00000KT 10SM SCT210 BKN250 05/03 A3008 RMK AO2 SLP184 T00500028
KPDX 011653Z 00000KT 10SM BKN250 07/04 A3009 RMK AO2 SLP188 T00720039
KPDX 011753Z 05004KT 10SM BKN250 09/03 A3010 RMK AO2 SLP192 T00890033 10089 20039 51012
KPDX 011853Z 10004KT 10SM FEW200 BKN250 10/03 A3010 RMK AO2 SLP192 T01000033
KPDX 011953Z 36003KT 10SM SCT200 BKN250 12/03 A3009 RMK AO2 SLP190 T01170033
KPDX 012053Z 00000KT 10SM FEW015 FEW200 BKN250 14/03 A3009 RMK AO2 SLP188 T01390033 58004
KPDX 012153Z 00000KT 10SM FEW025 FEW100 BKN180 BKN250 15/04 A3008 RMK AO2 SLP184 T01500039
KPDX 012253Z 36004KT 10SM FEW030 FEW100 BKN200 BKN250 15/04 A3007 RMK AO2 SLP182 T01500044



Page loaded:  23:32 UTC  |   03:32 PM Pacific  |   04:32 PM Mountain  |   05:32 PM Central  |   06:32 PM Eastern

 

ADVISORIES

FORECASTS

FORECASTS

OBSERVATIONS

USER TOOLS

ABOUT US